Time;durP1;ratioP1;P1;durP2;ratioP2;P2;SDS_P1;SDS_P2;PMS_P1;PMS_P2;Temp;Humidity;BMP_temperature;BMP_pressure;BME280_temperature;BME280_humidity;BME280_pressure;Samples;Min_cycle;Max_cycle;Signal;HPM_P1;HPM_P2
2021/05/29 00:00:11;;;;;;;3.40;3.00;;;12.20;90.10;;;;;;5097303;28;20473;-35
2021/05/29 00:02:36;;;;;;;3.83;3.53;;;12.20;90.20;;;;;;5098516;28;20414;-36
2021/05/29 00:05:05;;;;;;;4.03;3.50;;;12.20;90.10;;;;;;5098416;28;20544;-37
2021/05/29 00:07:30;;;;;;;5.33;3.20;;;12.20;90.20;;;;;;5096724;28;20184;-36
2021/05/29 00:09:56;;;;;;;3.80;3.40;;;12.20;90.30;;;;;;5095569;28;20430;-35
2021/05/29 00:12:21;;;;;;;4.43;3.20;;;12.20;90.20;;;;;;5096570;28;20187;-35
2021/05/29 00:14:48;;;;;;;2.93;2.73;;;12.20;90.20;;;;;;5096850;28;20203;-34
2021/05/29 00:17:15;;;;;;;3.00;2.70;;;12.20;90.10;;;;;;5096465;28;20265;-36
2021/05/29 00:19:40;;;;;;;2.80;2.60;;;12.20;90.10;;;;;;5096098;28;20441;-38
2021/05/29 00:22:06;;;;;;;5.13;3.03;;;12.20;90.00;;;;;;5096165;28;20411;-35
2021/05/29 00:24:32;;;;;;;4.23;2.70;;;12.20;90.00;;;;;;5096524;28;20177;-34
2021/05/29 00:26:59;;;;;;;6.47;2.97;;;12.20;90.20;;;;;;5096475;28;20169;-36
2021/05/29 00:29:24;;;;;;;3.33;3.03;;;12.20;90.20;;;;;;5095785;28;20267;-35
2021/05/29 00:31:50;;;;;;;3.60;3.30;;;12.10;90.30;;;;;;5096205;28;20468;-36
2021/05/29 00:34:16;;;;;;;3.80;3.50;;;12.00;90.40;;;;;;5096224;28;20205;-36
2021/05/29 00:36:41;;;;;;;7.40;3.13;;;12.00;90.50;;;;;;5096593;28;20200;-36
2021/05/29 00:39:07;;;;;;;3.37;3.07;;;12.00;90.50;;;;;;5096323;28;20543;-36
2021/05/29 00:41:33;;;;;;;3.20;2.90;;;12.00;90.20;;;;;;5096506;28;20168;-35
2021/05/29 00:43:58;;;;;;;3.30;3.00;;;12.00;90.60;;;;;;5096357;28;20168;-36
2021/05/29 00:46:24;;;;;;;4.20;3.20;;;12.00;90.50;;;;;;5095303;28;20259;-35
2021/05/29 00:48:49;;;;;;;3.40;3.10;;;12.00;90.60;;;;;;5096015;28;20191;-35
2021/05/29 00:51:15;;;;;;;3.03;2.73;;;12.00;90.70;;;;;;5095180;28;20180;-35
2021/05/29 00:53:41;;;;;;;4.90;3.20;;;12.00;90.60;;;;;;5097098;28;20217;-35
2021/05/29 00:56:07;;;;;;;3.47;3.13;;;12.00;90.70;;;;;;5099816;28;20200;-35
2021/05/29 00:58:33;;;;;;;3.07;2.80;;;11.90;90.70;;;;;;5100013;28;20177;-35
2021/05/29 01:00:59;;;;;;;4.23;3.53;;;12.00;90.80;;;;;;5100002;28;20417;-35
2021/05/29 01:03:26;;;;;;;3.50;3.10;;;12.00;90.70;;;;;;5100212;28;20219;-35
2021/05/29 01:05:52;;;;;;;5.87;3.23;;;12.00;90.80;;;;;;5100467;28;20475;-35
2021/05/29 01:08:17;;;;;;;4.87;3.00;;;12.00;90.60;;;;;;5099986;28;20426;-35
2021/05/29 01:10:44;;;;;;;3.20;2.90;;;12.10;90.40;;;;;;5099717;28;20176;-36
2021/05/29 01:13:11;;;;;;;2.77;2.57;;;12.00;90.50;;;;;;5099656;28;20638;-35
2021/05/29 01:15:40;;;;;;;3.77;3.00;;;12.10;90.90;;;;;;5099803;28;20442;-35
2021/05/29 01:18:08;;;;;;;3.33;2.80;;;12.00;90.90;;;;;;5099756;28;20422;-36
2021/05/29 01:20:34;;;;;;;3.73;3.00;;;12.00;91.20;;;;;;5098540;28;20406;-35
2021/05/29 01:23:00;;;;;;;5.40;3.57;;;12.00;91.10;;;;;;5099741;28;20405;-36
2021/05/29 01:25:36;;;;;;;3.73;3.43;;;12.00;91.20;;;;;;5099453;28;20413;-35
2021/05/29 01:28:10;;;;;;;3.50;3.20;;;11.90;91.00;;;;;;5099413;28;20405;-36
2021/05/29 01:30:41;;;;;;;4.30;3.20;;;11.90;91.20;;;;;;5099699;28;20497;-35
2021/05/29 01:33:10;;;;;;;5.50;3.40;;;11.90;91.30;;;;;;5097733;28;20419;-35
2021/05/29 01:35:36;;;;;;;4.13;3.73;;;11.90;91.40;;;;;;5099097;28;20415;-35
2021/05/29 01:38:02;;;;;;;3.73;3.30;;;11.90;91.30;;;;;;5099007;28;20502;-34
2021/05/29 01:40:28;;;;;;;4.00;2.90;;;11.90;91.40;;;;;;5099152;28;20513;-36
2021/05/29 01:43:49;;;;;;;3.73;3.37;;;11.80;91.40;;;;;;5099229;28;20257;-36
2021/05/29 01:46:18;;;;;;;3.57;2.63;;;11.80;91.40;;;;;;5098865;28;20176;-36
2021/05/29 01:48:45;;;;;;;4.37;2.90;;;11.80;91.50;;;;;;5099114;28;20410;-35
2021/05/29 01:51:17;;;;;;;3.57;3.10;;;11.80;91.60;;;;;;5099081;28;20454;-36
2021/05/29 01:53:43;;;;;;;3.53;2.87;;;11.80;91.60;;;;;;5099504;28;20435;-35
2021/05/29 01:56:09;;;;;;;4.13;3.33;;;11.80;91.50;;;;;;5099777;28;20462;-35
2021/05/29 01:58:37;;;;;;;3.70;3.37;;;11.80;91.70;;;;;;5101988;28;20494;-37
2021/05/29 02:01:04;;;;;;;4.33;2.90;;;11.70;91.70;;;;;;5103550;28;20422;-43
2021/05/29 02:03:29;;;;;;;3.80;3.40;;;11.70;91.70;;;;;;5104053;28;20413;-42
2021/05/29 02:05:55;;;;;;;3.73;3.27;;;11.70;91.80;;;;;;5097186;28;20517;-43
2021/05/29 02:08:21;;;;;;;4.43;3.13;;;11.70;91.70;;;;;;5098360;28;20173;-42
2021/05/29 02:10:47;;;;;;;3.77;3.47;;;11.70;91.80;;;;;;5098344;28;20180;-43
2021/05/29 02:13:20;;;;;;;4.43;3.33;;;11.70;91.90;;;;;;5098306;28;20240;-43
2021/05/29 02:15:46;;;;;;;4.03;3.17;;;11.70;91.80;;;;;;5098409;28;20430;-42
2021/05/29 02:18:11;;;;;;;3.70;3.40;;;11.70;91.70;;;;;;5098647;28;20410;-43
2021/05/29 02:21:02;;;;;;;3.60;3.20;;;11.70;91.80;;;;;;5098531;28;20224;-40
2021/05/29 02:23:30;;;;;;;3.80;3.10;;;11.70;91.90;;;;;;5098326;28;20176;-42
2021/05/29 02:25:59;;;;;;;2.60;2.40;;;11.70;91.90;;;;;;5097981;28;20779;-42
2021/05/29 02:28:24;;;;;;;4.20;3.33;;;11.70;91.90;;;;;;5098187;28;20445;-42
2021/05/29 02:30:51;;;;;;;3.83;2.70;;;11.80;92.10;;;;;;5098147;28;20734;-43
2021/05/29 02:33:17;;;;;;;3.23;2.93;;;11.80;92.30;;;;;;5098082;28;20179;-43
2021/05/29 02:35:43;;;;;;;6.13;3.00;;;11.80;92.00;;;;;;5098620;28;20821;-40
2021/05/29 02:38:09;;;;;;;4.07;3.00;;;11.80;92.50;;;;;;5097413;28;20514;-43
2021/05/29 02:40:35;;;;;;;3.40;2.97;;;11.80;92.20;;;;;;5098094;28;20176;-43
2021/05/29 02:43:01;;;;;;;3.10;2.80;;;11.80;92.20;;;;;;5097717;28;20414;-41
2021/05/29 02:45:27;;;;;;;3.53;3.23;;;11.80;92.30;;;;;;5098129;28;20552;-43
2021/05/29 02:47:53;;;;;;;3.77;3.37;;;11.70;92.20;;;;;;5097870;28;20279;-42
2021/05/29 02:50:19;;;;;;;4.00;3.13;;;11.80;92.30;;;;;;5097617;28;20513;-42
2021/05/29 02:52:45;;;;;;;3.37;3.07;;;11.70;92.40;;;;;;5098137;28;20480;-42
2021/05/29 02:55:15;;;;;;;4.27;3.37;;;11.70;92.40;;;;;;5097860;28;20430;-42
2021/05/29 02:57:40;;;;;;;3.70;3.40;;;11.70;92.50;;;;;;5097433;28;20273;-42
2021/05/29 03:00:09;;;;;;;3.60;3.30;;;11.60;92.60;;;;;;5097877;28;20419;-42
2021/05/29 03:02:35;;;;;;;4.03;3.43;;;11.60;92.70;;;;;;5097530;28;20495;-42
2021/05/29 03:05:01;;;;;;;4.00;3.53;;;11.60;92.70;;;;;;5096900;28;20426;-42
2021/05/29 03:07:27;;;;;;;4.20;3.80;;;11.60;92.70;;;;;;5097687;28;20274;-43
2021/05/29 03:09:53;;;;;;;4.47;3.83;;;11.50;92.80;;;;;;5097287;28;20553;-42
2021/05/29 03:12:18;;;;;;;3.00;2.80;;;11.50;92.80;;;;;;5097775;28;20464;-43
2021/05/29 03:14:44;;;;;;;5.40;3.37;;;11.50;92.90;;;;;;5097223;28;20180;-42
2021/05/29 03:17:09;;;;;;;3.73;3.40;;;11.50;93.30;;;;;;5096879;28;20204;-43
2021/05/29 03:19:35;;;;;;;3.63;3.33;;;11.40;93.00;;;;;;5097698;28;20179;-43
2021/05/29 03:22:01;;;;;;;4.47;4.10;;;11.40;93.00;;;;;;5096790;28;20501;-42
2021/05/29 03:24:26;;;;;;;4.67;3.47;;;11.40;93.10;;;;;;5097330;28;20169;-42
2021/05/29 03:26:52;;;;;;;4.53;3.60;;;11.40;93.10;;;;;;5097698;28;20288;-42
2021/05/29 03:29:17;;;;;;;4.40;3.43;;;11.30;93.20;;;;;;5096910;28;20563;-42
2021/05/29 03:31:43;;;;;;;3.57;3.27;;;11.30;93.10;;;;;;5097162;28;20196;-42
2021/05/29 03:34:10;;;;;;;4.10;3.80;;;11.30;93.20;;;;;;5097531;28;20462;-41
2021/05/29 03:36:35;;;;;;;3.97;3.67;;;11.40;93.20;;;;;;5097054;28;20212;-42
2021/05/29 03:39:01;;;;;;;5.60;3.77;;;11.40;93.20;;;;;;5096969;28;20422;-42
2021/05/29 03:41:27;;;;;;;3.93;3.63;;;11.40;93.20;;;;;;5096913;28;20176;-42
2021/05/29 03:43:52;;;;;;;4.47;4.07;;;11.40;93.20;;;;;;5097287;28;20197;-41
2021/05/29 03:46:18;;;;;;;3.83;3.53;;;11.40;93.30;;;;;;5096971;28;20605;-42
2021/05/29 03:48:43;;;;;;;4.70;4.27;;;11.40;93.50;;;;;;5097213;28;20479;-41
2021/05/29 03:51:09;;;;;;;4.83;4.00;;;11.40;93.50;;;;;;5096937;28;20184;-42
2021/05/29 03:53:35;;;;;;;4.67;4.13;;;11.30;93.70;;;;;;5094774;28;20184;-42
2021/05/29 03:56:00;;;;;;;4.20;3.80;;;11.30;93.80;;;;;;5096362;28;20206;-42
2021/05/29 03:58:26;;;;;;;3.83;3.53;;;11.20;93.90;;;;;;5097093;28;20164;-42
2021/05/29 04:00:51;;;;;;;6.00;4.03;;;11.20;94.20;;;;;;5094910;28;20172;-42
2021/05/29 04:03:17;;;;;;;4.40;3.70;;;11.20;94.60;;;;;;5096676;28;20462;-41
2021/05/29 04:05:43;;;;;;;4.43;3.97;;;11.20;94.30;;;;;;5096681;28;20176;-42
2021/05/29 04:08:08;;;;;;;5.47;4.73;;;11.10;94.20;;;;;;5096262;28;20542;-42
2021/05/29 04:10:36;;;;;;;4.43;4.03;;;11.20;94.30;;;;;;5095845;28;20544;-46
2021/05/29 04:13:02;;;;;;;4.50;4.10;;;11.10;94.40;;;;;;5095768;28;20224;-45
2021/05/29 04:15:28;;;;;;;6.27;4.00;;;11.10;94.50;;;;;;5095932;28;20457;-44
2021/05/29 04:17:53;;;;;;;4.90;4.40;;;11.20;94.50;;;;;;5096243;28;20292;-44
2021/05/29 04:20:21;;;;;;;4.20;3.33;;;11.20;94.40;;;;;;5095191;28;20474;-44
2021/05/29 04:22:47;;;;;;;4.27;3.87;;;11.30;94.40;;;;;;5095956;28;20252;-44
2021/05/29 04:25:15;;;;;;;5.50;3.37;;;11.40;94.30;;;;;;5096503;28;20463;-44
2021/05/29 04:27:41;;;;;;;4.13;3.73;;;11.50;94.10;;;;;;5096336;28;20503;-44
2021/05/29 04:30:10;;;;;;;5.03;4.57;;;11.60;94.10;;;;;;5100171;28;20831;-44
2021/05/29 04:32:36;;;;;;;3.97;3.53;;;11.80;93.90;;;;;;5100425;28;20177;-44
2021/05/29 04:35:01;;;;;;;4.20;3.27;;;11.90;93.60;;;;;;5100281;28;20437;-44
2021/05/29 04:37:27;;;;;;;4.10;3.70;;;12.00;93.20;;;;;;5100504;28;20743;-43
2021/05/29 04:39:53;;;;;;;3.93;3.40;;;12.10;93.00;;;;;;5099435;28;20406;-43
2021/05/29 04:42:18;;;;;;;4.17;3.17;;;12.30;92.80;;;;;;5099972;28;20179;-44
2021/05/29 04:44:44;;;;;;;4.73;3.87;;;12.40;92.30;;;;;;5099620;28;20446;-44
2021/05/29 04:47:11;;;;;;;4.30;2.93;;;12.40;92.30;;;;;;5100066;28;20454;-44
2021/05/29 04:49:37;;;;;;;5.60;3.57;;;12.60;92.10;;;;;;5098936;28;20188;-43
2021/05/29 04:52:03;;;;;;;3.50;3.13;;;12.70;91.50;;;;;;5100204;28;20474;-44
2021/05/29 04:54:29;;;;;;;3.30;2.87;;;12.80;91.40;;;;;;5100494;28;20176;-43
2021/05/29 04:56:55;;;;;;;3.13;2.83;;;12.90;90.90;;;;;;5099981;28;20469;-43
2021/05/29 04:59:20;;;;;;;3.33;3.03;;;13.00;90.90;;;;;;5099354;28;20702;-43
2021/05/29 05:01:46;;;;;;;4.30;3.60;;;12.90;90.50;;;;;;5099351;28;20177;-42
2021/05/29 05:04:12;;;;;;;3.33;3.00;;;13.00;90.50;;;;;;5099636;28;20180;-42
2021/05/29 05:06:37;;;;;;;2.67;2.47;;;13.10;90.10;;;;;;5099445;28;20188;-40
2021/05/29 05:09:04;;;;;;;3.40;3.10;;;13.30;89.60;;;;;;5099144;28;20720;-42
2021/05/29 05:11:30;;;;;;;5.73;3.23;;;13.50;88.80;;;;;;5099676;28;20253;-42
2021/05/29 05:13:56;;;;;;;3.80;3.07;;;13.30;88.30;;;;;;5097974;28;20473;-43
2021/05/29 05:16:21;;;;;;;3.37;3.07;;;13.20;88.70;;;;;;5099539;28;20473;-43
2021/05/29 05:18:47;;;;;;;3.60;3.30;;;13.40;88.70;;;;;;5099355;28;20198;-42
2021/05/29 05:21:13;;;;;;;2.97;2.67;;;13.50;87.50;;;;;;5099368;28;20279;-42
2021/05/29 05:23:39;;;;;;;3.90;3.50;;;13.60;87.90;;;;;;5098815;28;20409;-42
2021/05/29 05:26:06;;;;;;;4.27;3.03;;;13.70;87.20;;;;;;5099021;28;20468;-43
2021/05/29 05:28:31;;;;;;;3.37;2.80;;;13.80;86.60;;;;;;5099082;28;20192;-42
2021/05/29 05:31:00;;;;;;;2.63;2.43;;;13.90;86.90;;;;;;5099056;28;20835;-42
2021/05/29 05:33:26;;;;;;;3.33;2.83;;;13.90;86.50;;;;;;5099172;28;20169;-43
2021/05/29 05:35:52;;;;;;;3.57;2.60;;;14.00;85.50;;;;;;5098608;28;20426;-42
2021/05/29 05:38:18;;;;;;;6.03;3.13;;;14.10;83.70;;;;;;5098993;28;20436;-42
2021/05/29 05:40:44;;;;;;;3.80;2.63;;;14.10;84.30;;;;;;5098375;28;20418;-42
2021/05/29 05:43:10;;;;;;;2.80;2.60;;;14.10;84.60;;;;;;5098261;28;20402;-43
2021/05/29 05:45:35;;;;;;;2.67;2.40;;;14.20;82.20;;;;;;5098719;28;20201;-43
2021/05/29 05:48:01;;;;;;;2.83;2.60;;;14.30;82.60;;;;;;5098503;28;20172;-43
2021/05/29 05:50:27;;;;;;;2.60;2.40;;;14.30;82.40;;;;;;5091793;28;20184;-44
2021/05/29 05:52:53;;;;;;;2.90;2.43;;;14.40;82.00;;;;;;5098771;28;20498;-44
2021/05/29 05:55:19;;;;;;;5.73;3.23;;;14.40;82.80;;;;;;5099103;28;20430;-42
2021/05/29 05:57:45;;;;;;;3.73;2.50;;;14.50;82.30;;;;;;5098932;28;20532;-42
2021/05/29 06:00:13;;;;;;;3.03;2.20;;;14.60;82.00;;;;;;5098920;28;20430;-42
2021/05/29 06:02:39;;;;;;;3.90;2.77;;;14.30;82.90;;;;;;5098820;28;20425;-40
2021/05/29 06:05:05;;;;;;;2.93;2.50;;;14.20;83.30;;;;;;5086909;28;20502;-43
2021/05/29 06:07:31;;;;;;;2.63;2.43;;;14.20;82.20;;;;;;5088415;28;20525;-42
2021/05/29 06:09:56;;;;;;;3.83;2.73;;;14.20;81.50;;;;;;5086139;28;20501;-41
2021/05/29 06:12:22;;;;;;;4.20;3.00;;;14.40;79.90;;;;;;5089040;28;20181;-43
2021/05/29 06:20:16;;;;;;;3.00;2.70;;;15.00;77.90;;;;;;5088285;28;20418;-42
2021/05/29 06:22:42;;;;;;;3.93;2.23;;;15.30;77.10;;;;;;5083981;28;20829;-41
2021/05/29 06:25:10;;;;;;;3.27;2.87;;;15.40;76.30;;;;;;5078165;28;20427;-42
2021/05/29 06:27:37;;;;;;;3.40;3.10;;;15.50;75.90;;;;;;5078466;28;20177;-42
2021/05/29 06:30:05;;;;;;;4.53;2.63;;;15.60;74.80;;;;;;5078241;28;20506;-40
2021/05/29 06:32:31;;;;;;;3.20;2.90;;;15.60;74.20;;;;;;5078164;28;20835;-42
2021/05/29 06:34:57;;;;;;;2.60;2.40;;;15.60;73.90;;;;;;5077281;28;20416;-41
2021/05/29 06:37:23;;;;;;;3.10;2.80;;;15.40;75.30;;;;;;5076803;28;20212;-41
2021/05/29 06:39:48;;;;;;;3.40;2.63;;;15.70;73.90;;;;;;5076150;28;20204;-42
2021/05/29 06:42:14;;;;;;;3.13;2.80;;;15.90;72.70;;;;;;5077330;28;20443;-42
2021/05/29 06:44:40;;;;;;;2.60;2.40;;;15.90;72.20;;;;;;5077127;28;20174;-42
2021/05/29 06:47:06;;;;;;;3.20;2.90;;;16.00;73.40;;;;;;5077003;28;20438;-40
2021/05/29 06:49:34;;;;;;;3.23;2.93;;;16.10;71.50;;;;;;5077173;28;20181;-40
2021/05/29 06:52:07;;;;;;;3.27;2.20;;;16.50;71.00;;;;;;5076757;28;20427;-43
2021/05/29 06:59:48;;;;;;;3.00;2.70;;;16.70;72.20;;;;;;5075644;28;20407;-41
2021/05/29 07:02:14;;;;;;;2.70;2.40;;;17.20;71.90;;;;;;5076315;28;20408;-43
2021/05/29 07:04:40;;;;;;;7.67;3.73;;;17.30;69.40;;;;;;5075891;28;20169;-43
2021/05/29 07:07:05;;;;;;;4.17;3.27;;;17.50;68.90;;;;;;5076731;28;20423;-41
2021/05/29 07:09:32;;;;;;;3.80;2.47;;;17.50;68.20;;;;;;5076854;28;20263;-42
2021/05/29 07:11:57;;;;;;;4.60;2.93;;;17.80;67.40;;;;;;5075571;28;20428;-42
2021/05/29 07:14:23;;;;;;;3.27;2.50;;;17.50;66.40;;;;;;5075451;28;20491;-41
2021/05/29 07:16:52;;;;;;;2.83;2.53;;;17.60;67.30;;;;;;5076093;28;20260;-41
2021/05/29 07:19:19;;;;;;;3.00;2.60;;;17.90;64.00;;;;;;5076717;28;20552;-40
2021/05/29 07:21:45;;;;;;;3.97;2.60;;;18.10;61.70;;;;;;5076784;28;20484;-41
2021/05/29 07:24:11;;;;;;;3.70;3.30;;;18.10;60.90;;;;;;5076924;28;20407;-41
2021/05/29 07:26:37;;;;;;;2.80;2.50;;;18.10;59.80;;;;;;5076365;28;20527;-42
2021/05/29 07:29:03;;;;;;;2.70;2.47;;;18.10;59.50;;;;;;5058328;28;20173;-42
2021/05/29 07:31:28;;;;;;;3.53;3.07;;;18.00;59.10;;;;;;5075315;28;20185;-42
2021/05/29 07:33:56;;;;;;;3.20;2.90;;;18.00;59.70;;;;;;5076324;28;20516;-42
2021/05/29 07:36:23;;;;;;;2.60;2.40;;;18.00;59.10;;;;;;5076230;28;20889;-41
2021/05/29 07:38:49;;;;;;;3.93;3.47;;;18.10;59.20;;;;;;5076100;28;20548;-40
2021/05/29 07:41:15;;;;;;;4.00;2.83;;;18.20;58.90;;;;;;5075232;28;20423;-40
2021/05/29 07:43:41;;;;;;;5.70;2.77;;;18.30;59.20;;;;;;5075450;28;20438;-41
2021/05/29 07:46:07;;;;;;;2.77;2.33;;;18.30;60.00;;;;;;5076332;28;20222;-41
2021/05/29 07:48:33;;;;;;;2.40;2.20;;;18.70;58.70;;;;;;5075600;28;20477;-41
2021/05/29 07:51:05;;;;;;;2.50;2.20;;;18.70;57.60;;;;;;5075043;28;20316;-40
2021/05/29 07:53:36;;;;;;;2.87;2.40;;;18.90;58.50;;;;;;5075298;28;20403;-41
2021/05/29 07:56:05;;;;;;;3.03;2.33;;;19.40;58.60;;;;;;5076496;28;20408;-40
2021/05/29 07:58:31;;;;;;;4.60;2.77;;;19.60;55.10;;;;;;5076938;28;20411;-41
2021/05/29 08:01:16;;;;;;;3.47;3.10;;;19.60;55.50;;;;;;5075913;28;20476;-42
2021/05/29 08:03:42;;;;;;;3.80;3.07;;;19.90;57.10;;;;;;5073918;28;20220;-42
2021/05/29 08:06:13;;;;;;;4.33;2.37;;;19.90;54.20;;;;;;5071341;28;20534;-41
2021/05/29 08:08:39;;;;;;;3.60;3.30;;;20.00;54.00;;;;;;5054084;28;20684;-41
2021/05/29 08:11:04;;;;;;;3.30;2.90;;;20.00;53.90;;;;;;5053535;28;20474;-42
2021/05/29 08:13:31;;;;;;;3.20;2.80;;;19.70;55.10;;;;;;5073785;28;20277;-42
2021/05/29 08:15:56;;;;;;;2.97;2.37;;;19.70;53.20;;;;;;5073558;28;20450;-42
2021/05/29 08:18:22;;;;;;;3.10;2.70;;;19.70;53.00;;;;;;5072810;28;20458;-39
2021/05/29 08:20:49;;;;;;;3.20;2.90;;;20.00;55.10;;;;;;5073642;28;20203;-42
2021/05/29 08:23:15;;;;;;;2.83;2.40;;;20.10;53.50;;;;;;5073701;28;20181;-41
2021/05/29 08:25:41;;;;;;;2.17;1.90;;;20.40;55.40;;;;;;5072431;28;20522;-42
2021/05/29 08:28:07;;;;;;;2.50;2.10;;;20.90;54.00;;;;;;5057010;28;20267;-42
2021/05/29 08:30:32;;;;;;;3.13;2.77;;;21.40;52.20;;;;;;5073337;28;20533;-43
2021/05/29 08:32:58;;;;;;;3.43;2.40;;;21.50;51.40;;;;;;5073267;28;20493;-41
2021/05/29 08:35:24;;;;;;;4.83;2.87;;;21.60;50.80;;;;;;5105000;28;20184;-40
2021/05/29 08:37:50;;;;;;;2.77;1.80;;;20.90;49.30;;;;;;5116399;28;20265;-43
2021/05/29 08:40:18;;;;;;;3.10;2.13;;;20.00;49.30;;;;;;5115993;28;20878;-42
2021/05/29 08:42:45;;;;;;;2.20;2.00;;;20.60;49.60;;;;;;5115371;28;20183;-42
2021/05/29 08:45:11;;;;;;;2.90;2.27;;;21.20;49.90;;;;;;5116441;28;20496;-42
2021/05/29 08:47:37;;;;;;;2.27;2.07;;;22.00;47.50;;;;;;5116106;28;20425;-42
2021/05/29 08:50:07;;;;;;;2.13;1.93;;;22.60;46.80;;;;;;5115572;28;20854;-42
2021/05/29 08:52:36;;;;;;;2.77;1.90;;;22.60;45.30;;;;;;5116789;28;20180;-43
2021/05/29 08:55:13;;;;;;;2.53;2.03;;;22.70;45.30;;;;;;5115678;28;20428;-42
2021/05/29 08:57:39;;;;;;;2.60;2.40;;;22.70;45.00;;;;;;5098045;28;20469;-42
2021/05/29 09:00:10;;;;;;;8.60;2.37;;;22.30;45.00;;;;;;5116418;28;20410;-42
2021/05/29 09:03:02;;;;;;;2.57;2.20;;;21.90;45.50;;;;;;5115747;28;20179;-40
2021/05/29 09:05:53;;;;;;;3.50;2.47;;;21.90;44.80;;;;;;5115792;28;20401;-41
2021/05/29 09:08:23;;;;;;;3.90;2.00;;;22.00;45.00;;;;;;5098369;28;20416;-42
2021/05/29 09:10:51;;;;;;;2.30;2.10;;;22.70;44.90;;;;;;5115849;28;20653;-42
2021/05/29 09:13:22;;;;;;;2.53;2.00;;;23.50;43.60;;;;;;5115297;28;20468;-42
2021/05/29 09:15:55;;;;;;;2.23;2.00;;;24.70;42.30;;;;;;5084194;28;20429;-42
2021/05/29 09:18:27;;;;;;;2.73;2.47;;;25.30;40.80;;;;;;5118630;28;20472;-42
2021/05/29 09:20:53;;;;;;;1.83;1.73;;;25.10;40.70;;;;;;5098854;28;20405;-42
2021/05/29 09:23:19;;;;;;;2.33;2.13;;;26.00;39.30;;;;;;5100760;28;20409;-43
2021/05/29 09:25:53;;;;;;;5.10;2.40;;;26.80;39.50;;;;;;5120279;28;20401;-43
2021/05/29 09:28:24;;;;;;;2.27;2.07;;;26.10;38.10;;;;;;5119327;28;20413;-43
2021/05/29 09:30:51;;;;;;;1.70;1.50;;;26.50;40.10;;;;;;5100446;28;20673;-43
2021/05/29 09:33:18;;;;;;;2.50;2.30;;;26.80;37.50;;;;;;5117239;28;20417;-43
2021/05/29 09:35:54;;;;;;;2.40;2.20;;;27.10;38.40;;;;;;5118302;28;20436;-43
2021/05/29 09:38:19;;;;;;;2.97;2.23;;;27.90;36.60;;;;;;5118218;28;20472;-43
2021/05/29 09:40:51;;;;;;;2.53;2.33;;;28.20;37.00;;;;;;5118246;28;20659;-43
2021/05/29 09:43:16;;;;;;;2.60;2.03;;;28.40;35.90;;;;;;5117989;28;20557;-44
2021/05/29 09:45:42;;;;;;;2.70;2.33;;;27.70;34.50;;;;;;5117817;28;20406;-43
2021/05/29 09:48:15;;;;;;;3.40;2.03;;;27.30;35.60;;;;;;5117263;28;20207;-42
2021/05/29 09:51:04;;;;;;;2.20;2.00;;;27.20;36.60;;;;;;5117574;28;20897;-43
2021/05/29 09:53:37;;;;;;;3.63;2.50;;;28.10;34.60;;;;;;5118594;28;20426;-43
2021/05/29 09:56:03;;;;;;;2.27;1.30;;;28.80;32.80;;;;;;5099913;28;20433;-43
2021/05/29 09:58:49;;;;;;;2.83;1.90;;;29.00;32.50;;;;;;5117522;28;20509;-43
2021/05/29 10:01:48;;;;;;;2.47;2.27;;;29.50;33.30;;;;;;5117722;28;20421;-43
2021/05/29 10:04:15;;;;;;;1.93;1.73;;;27.90;33.80;;;;;;5117907;28;20405;-43
2021/05/29 10:06:45;;;;;;;2.10;1.87;;;28.10;34.30;;;;;;5117720;28;20505;-43
2021/05/29 10:09:10;;;;;;;3.13;2.37;;;29.00;33.40;;;;;;5100125;28;20688;-43
2021/05/29 10:11:37;;;;;;;2.13;1.93;;;29.40;32.30;;;;;;5083263;28;20436;-43
2021/05/29 10:14:05;;;;;;;2.47;2.27;;;28.80;32.10;;;;;;5117391;28;20637;-43
2021/05/29 10:16:32;;;;;;;3.33;3.10;;;27.60;32.50;;;;;;5105417;28;20493;-43
2021/05/29 10:19:00;;;;;;;2.33;2.10;;;26.60;34.00;;;;;;5112468;28;20440;-43
2021/05/29 10:21:27;;;;;;;3.00;2.10;;;25.60;35.80;;;;;;5098907;28;20435;-43
2021/05/29 10:23:53;;;;;;;2.03;1.83;;;24.70;35.20;;;;;;5115267;28;20414;-43
2021/05/29 10:26:18;;;;;;;2.67;2.00;;;24.90;35.70;;;;;;5097031;28;20772;-43
2021/05/29 10:28:46;;;;;;;2.90;2.70;;;25.20;37.90;;;;;;5116760;28;20482;-43
2021/05/29 10:31:12;;;;;;;2.40;2.20;;;24.90;37.60;;;;;;5116383;28;20193;-43
2021/05/29 10:33:42;;;;;;;2.30;2.10;;;24.40;38.60;;;;;;5114018;28;20484;-42
2021/05/29 10:36:08;;;;;;;4.03;2.40;;;25.50;39.00;;;;;;5063115;28;20826;-42
2021/05/29 10:38:45;;;;;;;4.30;3.20;;;27.10;36.80;;;;;;5115492;28;20406;-42
2021/05/29 10:41:11;;;;;;;11.20;6.57;;;27.60;36.70;;;;;;5116502;28;20440;-43
2021/05/29 10:43:36;;;;;;;3.53;2.50;;;29.00;34.10;;;;;;5098084;28;20704;-42
2021/05/29 10:46:08;;;;;;;8.93;4.60;;;29.00;33.40;;;;;;5116476;28;20450;-42
2021/05/29 10:48:45;;;;;;;4.67;2.70;;;30.20;34.40;;;;;;5117087;28;20453;-43
2021/05/29 10:51:12;;;;;;;4.10;2.40;;;31.00;34.10;;;;;;5117821;28;20786;-43
2021/05/29 10:53:44;;;;;;;2.80;2.40;;;31.20;32.70;;;;;;5099826;28;20410;-43
2021/05/29 10:56:15;;;;;;;4.90;2.70;;;30.90;31.70;;;;;;5114361;28;20418;-41
2021/05/29 10:59:19;;;;;;;3.37;2.57;;;29.50;32.50;;;;;;5114801;28;20408;-42
2021/05/29 11:01:45;;;;;;;2.97;2.67;;;28.90;32.50;;;;;;5116510;28;20681;-43
2021/05/29 11:04:17;;;;;;;2.87;2.60;;;28.60;33.00;;;;;;5115452;28;20704;-43
2021/05/29 11:06:53;;;;;;;4.40;2.67;;;28.80;34.10;;;;;;5096613;28;20425;-43
2021/05/29 11:09:25;;;;;;;2.70;2.50;;;29.50;33.00;;;;;;5115217;28;20401;-43
2021/05/29 11:11:57;;;;;;;2.50;2.30;;;30.80;32.60;;;;;;5116829;28;20428;-43
2021/05/29 11:14:24;;;;;;;3.43;2.60;;;30.90;32.10;;;;;;5116029;28;20850;-43
2021/05/29 11:16:54;;;;;;;2.67;2.20;;;31.70;31.50;;;;;;5116418;28;20440;-43
2021/05/29 11:19:26;;;;;;;3.30;3.00;;;30.90;31.00;;;;;;5098486;28;20508;-43
2021/05/29 11:22:07;;;;;;;4.70;2.53;;;30.10;31.30;;;;;;5116614;28;20851;-43
2021/05/29 11:24:48;;;;;;;2.90;2.70;;;29.70;32.70;;;;;;5117316;28;20405;-43
2021/05/29 11:27:14;;;;;;;2.67;2.43;;;28.80;33.90;;;;;;5117267;28;20425;-41
2021/05/29 11:30:09;;;;;;;2.60;2.40;;;28.20;33.20;;;;;;5082204;28;20421;-44
2021/05/29 11:35:43;;;;;;;2.50;2.20;;;29.60;32.80;;;;;;5115989;28;20384;-42
2021/05/29 11:38:15;;;;;;;2.10;1.80;;;29.70;30.10;;;;;;5116777;28;20461;-42
2021/05/29 11:41:09;;;;;;;2.83;2.10;;;30.60;30.10;;;;;;5115569;28;20565;-44
2021/05/29 11:43:47;;;;;;;2.13;1.93;;;31.40;29.30;;;;;;5116224;28;20417;-43
2021/05/29 11:46:21;;;;;;;3.03;2.10;;;30.70;29.70;;;;;;5116801;28;20421;-43
2021/05/29 11:49:00;;;;;;;4.50;2.20;;;30.90;29.50;;;;;;5116413;28;20405;-43
2021/05/29 11:51:28;;;;;;;2.87;2.57;;;31.50;29.60;;;;;;5098302;28;20421;-43
2021/05/29 11:53:56;;;;;;;2.13;1.93;;;30.40;29.30;;;;;;5115931;28;20417;-42
2021/05/29 11:56:31;;;;;;;2.87;2.40;;;29.30;29.90;;;;;;5116855;28;20473;-43
2021/05/29 11:58:57;;;;;;;2.60;2.07;;;28.30;30.70;;;;;;5116773;28;20416;-43
2021/05/29 12:01:37;;;;;;;3.00;1.93;;;27.90;31.60;;;;;;5116712;28;20721;-43
2021/05/29 12:04:05;;;;;;;1.93;1.67;;;29.00;31.20;;;;;;5116184;28;20597;-43
2021/05/29 12:06:43;;;;;;;1.77;1.67;;;30.80;30.00;;;;;;5098170;28;20428;-45
2021/05/29 12:09:13;;;;;;;1.80;1.70;;;31.20;28.80;;;;;;5116786;28;20405;-43
2021/05/29 12:12:06;;;;;;;3.57;2.30;;;29.90;29.40;;;;;;5102387;28;20676;-43
2021/05/29 12:14:35;;;;;;;2.10;1.90;;;29.90;30.50;;;;;;5107713;28;20455;-43
2021/05/29 12:17:03;;;;;;;3.00;2.07;;;30.20;29.50;;;;;;5114099;28;20465;-44
2021/05/29 12:19:53;;;;;;;1.73;1.63;;;30.80;29.40;;;;;;5079769;28;20376;-43
2021/05/29 12:22:27;;;;;;;2.00;1.80;;;30.70;29.00;;;;;;5114858;28;20457;-43
2021/05/29 12:24:59;;;;;;;1.83;1.67;;;29.60;28.60;;;;;;5114231;28;20405;-43
2021/05/29 12:27:27;;;;;;;1.63;1.43;;;28.00;29.40;;;;;;5080325;28;20488;-43
2021/05/29 12:30:03;;;;;;;1.70;1.57;;;29.50;29.90;;;;;;5115396;28;20861;-44
2021/05/29 12:32:39;;;;;;;1.90;1.33;;;29.60;29.60;;;;;;5115934;28;20421;-43
2021/05/29 12:35:26;;;;;;;1.90;1.40;;;29.50;28.90;;;;;;5115168;28;20409;-42
2021/05/29 12:37:52;;;;;;;1.47;1.20;;;28.50;29.90;;;;;;5094620;28;20491;-42
2021/05/29 12:40:18;;;;;;;2.03;1.40;;;28.00;29.90;;;;;;5113772;28;21020;-43
2021/05/29 12:42:49;;;;;;;3.63;1.20;;;27.70;29.50;;;;;;5135825;28;20175;-43
2021/05/29 12:45:21;;;;;;;1.70;1.10;;;28.30;29.50;;;;;;5135657;28;20404;-42
2021/05/29 12:48:01;;;;;;;2.27;1.10;;;29.50;29.90;;;;;;5133596;28;20733;-43
2021/05/29 12:50:32;;;;;;;1.10;0.80;;;30.80;27.30;;;;;;5138548;27;20408;-42
2021/05/29 12:53:11;;;;;;;2.43;1.30;;;31.60;27.50;;;;;;5140050;27;20399;-43
2021/05/29 12:55:37;;;;;;;2.17;1.30;;;32.60;26.70;;;;;;5139815;27;20390;-43
2021/05/29 12:58:16;;;;;;;1.80;1.10;;;33.00;26.70;;;;;;5139452;27;20446;-43
2021/05/29 13:01:53;;;;;;;2.27;1.30;;;33.80;26.60;;;;;;5121543;27;20423;-42
2021/05/29 13:09:42;;;;;;;1.63;1.33;;;35.10;26.40;;;;;;5140052;27;20383;-43
2021/05/29 13:12:15;;;;;;;1.40;1.30;;;33.30;27.30;;;;;;5122079;27;20411;-44
2021/05/29 13:14:42;;;;;;;1.50;1.20;;;32.40;26.90;;;;;;5139272;27;20481;-44